Airfield :
LOGIN :

Register | Disclaimer

   EN    FR    IT 

 










Legend :    VFR   Marginal VFR   IFR   Intensive IFR   Very Intensive IFR
Visi :
Ceiling :
>= 8 km
>= 3000ft
5 to 8 km
1000 to 3000 ft
1500m to 5 km
500 to 1000 ft
800 to 1500m
200 to 500 ft
< 800m
< 200 ft
Symbols :   Thunderstorms  Fog  Heavy snow  Heavy precipitations  Wind > 20 kt
SIGMETs :     Misc.  Thunderstorms  Icing  Turbulence  Mountain Waves  Volcanic Ashes







- Airport Elevation : 202 ft
- IATA code : LGW
- Download approach charts


EGKK - London Gatwick

CURRENT METAR :
  • 191150Z 16007KT 130V200 9999 SCT010 BKN016 16/15 Q1003

EXPIRED METARs :
  • 191120Z 16008KT 100V180 9999 SCT009 16/14 Q1003
  • 191050Z 14008KT 120V180 9999 SCT009 16/15 Q1004
  • 191020Z 09004KT 060V120 8000 FEW012 16/15 Q1004
  • 190950Z VRB03KT 4500 BR FEW012 16/15 Q1004
  • 190920Z 09004KT 3500 BR FEW009 SCT045 16/15 Q1004

TAF TAF EGKK
Valid from the 19 at 12:00 until the 20 at 18:00 UTC


191100Z 1912/2018 17010KT 9000 SCT018
BECMG 1912/1915 BKN012
PROB40
TEMPO 1912/1917 4000 RA BKN008
BECMG 1917/1919 9999 SCT025
TEMPO 1919/1923 8000 -SHRA BKN012
PROB40
TEMPO 1919/1923 19015G25KT 4000 SHRA
BECMG 2003/2006 25012KT
TEMPO 2004/2010 6000 RA BKN012
PROB40
TEMPO 2006/2013 27015G25KT
No reported NOTAMs for that airfield.



MET'MAP, your aeronautical weather chart ! - Copyright ORBIFLY December 2007 - Disclaimer

ORBIFLY MET'MAP TEAM :

Programming & Development : Alexandra Zaïnal
Concept & Development : Baudouin d'Aumeries
Co-Development & Prog : Marc-Olivier Méhu
Technical & hardware support : Manuel Goepfert

Contact : metmap@orbifly.com




SOURCES & CREDITS :

   NOAA